Time;durP1;ratioP1;P1;durP2;ratioP2;P2;SDS_P1;SDS_P2;PMS_P1;PMS_P2;Temp;Humidity;BMP_temperature;BMP_pressure;BME280_temperature;BME280_humidity;BME280_pressure;Samples;Min_cycle;Max_cycle;Signal;HPM_P1;HPM_P2
2023/04/10 00:01:34;;;;;;;76.30;43.20;;;;;;;6.49;86.43;99635.87;221999;1301;22553;-85
2023/04/10 00:06:37;;;;;;;74.40;44.20;;;;;;;6.49;86.10;99631.50;222257;1299;22581;-83
2023/04/10 00:11:40;;;;;;;78.00;46.00;;;;;;;6.47;86.36;99630.28;222233;1300;22570;-83
2023/04/10 00:16:42;;;;;;;70.80;43.80;;;;;;;6.46;86.18;99630.36;222479;1293;23864;-84
2023/04/10 00:21:44;;;;;;;74.60;43.30;;;;;;;6.42;86.17;99620.72;222177;1301;22553;-83
2023/04/10 00:26:46;;;;;;;74.10;42.70;;;;;;;6.37;86.39;99613.98;222185;1299;22568;-82
2023/04/10 00:31:48;;;;;;;77.50;44.50;;;;;;;6.33;85.98;99608.95;222520;1299;24360;-83
2023/04/10 00:36:51;;;;;;;72.60;41.40;;;;;;;6.30;86.33;99605.39;222209;1301;22584;-84
2023/04/10 00:41:53;;;;;;;78.60;46.00;;;;;;;6.27;86.43;99612.13;222510;1300;22550;-83
2023/04/10 00:46:55;;;;;;;80.30;46.30;;;;;;;6.28;86.49;99613.08;222190;1299;24298;-83
2023/04/10 00:51:57;;;;;;;78.00;46.70;;;;;;;6.30;86.55;99613.73;222190;1301;22626;-82
2023/04/10 00:57:00;;;;;;;75.50;45.00;;;;;;;6.32;86.63;99609.34;222458;1301;22579;-84
2023/04/10 01:02:02;;;;;;;75.60;45.70;;;;;;;6.33;86.77;99605.79;222278;1301;22564;-83
2023/04/10 01:07:37;;;;;;;79.60;48.50;;;;;;;6.33;86.37;99601.91;222221;1299;22558;-82
2023/04/10 01:12:47;;;;;;;67.40;41.30;;;;;;;6.33;86.72;99596.33;222171;1301;24422;-82
2023/04/10 01:18:03;;;;;;;58.40;38.30;;;;;;;6.30;86.35;99604.31;222443;1300;22642;-83
2023/04/10 01:23:24;;;;;;;70.10;42.30;;;;;;;6.25;86.33;99610.36;222142;1301;22567;-83
2023/04/10 01:28:42;;;;;;;71.30;42.00;;;;;;;6.27;86.43;99610.58;222451;1284;22574;-83
2023/04/10 01:33:49;;;;;;;71.50;43.30;;;;;;;6.29;86.69;99614.95;222463;1289;22617;-82
2023/04/10 01:38:53;;;;;;;76.20;43.10;;;;;;;6.30;86.91;99618.87;222175;1301;25697;-83
2023/04/10 01:43:57;;;;;;;75.40;44.40;;;;;;;6.31;86.86;99615.41;222241;1295;22580;-83
2023/04/10 01:49:02;;;;;;;74.90;43.70;;;;;;;6.34;87.33;99613.93;222205;1301;22582;-83
2023/04/10 01:54:05;;;;;;;75.00;44.40;;;;;;;6.36;86.64;99608.88;222460;1298;22550;-81
2023/04/10 01:59:08;;;;;;;64.70;39.00;;;;;;;6.37;86.82;99597.55;222163;1301;24244;-83
2023/04/10 02:04:10;;;;;;;74.20;42.70;;;;;;;6.38;87.04;99598.92;222196;1299;22557;-84
2023/04/10 02:09:22;;;;;;;71.90;41.00;;;;;;;6.38;87.06;99603.45;222453;1298;22544;-84
2023/04/10 02:14:30;;;;;;;74.90;41.50;;;;;;;6.38;87.18;99615.62;222197;1300;22573;-83
2023/04/10 02:19:34;;;;;;;83.70;44.50;;;;;;;6.40;87.23;99627.18;222470;1299;24312;-84
2023/04/10 02:24:36;;;;;;;87.70;45.10;;;;;;;6.43;87.24;99632.50;222189;1301;22549;-83
2023/04/10 02:29:38;;;;;;;89.00;43.00;;;;;;;6.50;87.34;99634.55;222230;1301;22557;-82
2023/04/10 02:34:42;;;;;;;93.20;46.10;;;;;;;6.54;87.32;99627.84;222470;1301;22571;-83
2023/04/10 02:39:44;;;;;;;96.40;47.10;;;;;;;6.58;87.33;99627.80;222466;1298;22550;-83
2023/04/10 02:44:47;;;;;;;103.80;48.10;;;;;;;6.60;87.27;99624.98;222169;1301;22552;-84
2023/04/10 02:49:50;;;;;;;94.60;46.20;;;;;;;6.62;87.36;99625.36;222216;1301;22570;-82
2023/04/10 02:54:52;;;;;;;95.50;48.40;;;;;;;6.59;87.22;99624.92;222270;1300;22773;-83
2023/04/10 02:59:55;;;;;;;96.60;48.50;;;;;;;6.56;87.61;99619.42;222203;1298;22593;-82
2023/04/10 03:05:01;;;;;;;101.50;50.20;;;;;;;6.53;87.24;99616.77;222508;1301;22680;-83
2023/04/10 03:10:04;;;;;;;106.50;50.50;;;;;;;6.48;87.43;99610.86;222486;1298;25338;-83
2023/04/10 03:15:07;;;;;;;107.10;49.30;;;;;;;6.51;87.53;99613.27;222329;1301;22630;-83
2023/04/10 03:20:10;;;;;;;108.50;48.90;;;;;;;6.53;87.93;99614.76;222184;1301;22567;-84
2023/04/10 03:25:12;;;;;;;110.00;50.60;;;;;;;6.53;87.88;99612.50;222163;1301;22576;-82
2023/04/10 03:30:14;;;;;;;105.70;50.00;;;;;;;6.53;87.64;99615.88;222174;1301;25424;-84
2023/04/10 03:35:17;;;;;;;105.30;46.70;;;;;;;6.52;87.56;99613.16;221924;1301;22559;-80
2023/04/10 03:40:19;;;;;;;101.30;48.60;;;;;;;6.50;87.63;99610.92;221838;1301;22557;-83
2023/04/10 03:45:22;;;;;;;104.10;49.80;;;;;;;6.47;87.51;99614.70;222388;1295;22568;-84
2023/04/10 03:50:25;;;;;;;96.70;47.20;;;;;;;6.49;87.84;99620.28;222120;1301;25344;-82
2023/04/10 03:55:31;;;;;;;102.80;46.50;;;;;;;6.50;87.94;99617.02;222261;1290;22583;-83
2023/04/10 04:00:34;;;;;;;95.90;45.30;;;;;;;6.52;87.90;99614.63;222103;1301;22547;-82
2023/04/10 04:06:03;;;;;;;104.90;46.60;;;;;;;6.53;88.01;99613.94;222230;1301;22556;-83
2023/04/10 04:11:23;;;;;;;97.20;44.70;;;;;;;6.52;87.69;99614.17;222189;1301;22560;-79
2023/04/10 04:16:26;;;;;;;111.90;47.90;;;;;;;6.52;88.20;99620.15;222468;1301;22567;-83
2023/04/10 04:21:46;;;;;;;99.80;44.90;;;;;;;6.53;88.12;99621.77;222113;1301;22575;-83
2023/04/10 04:27:02;;;;;;;107.80;47.40;;;;;;;6.53;88.29;99622.71;222191;1301;22561;-84
2023/04/10 04:32:24;;;;;;;125.70;49.50;;;;;;;6.54;88.11;99622.77;222171;1281;22614;-82
2023/04/10 04:37:45;;;;;;;106.70;48.30;;;;;;;6.55;88.55;99628.23;222305;1295;22565;-83
2023/04/10 04:43:06;;;;;;;104.00;46.60;;;;;;;6.55;88.05;99618.98;222215;1301;22541;-82
2023/04/10 04:48:31;;;;;;;92.90;40.80;;;;;;;6.54;88.41;99617.66;222496;1301;22654;-83
2023/04/10 04:53:45;;;;;;;92.00;41.70;;;;;;;6.55;88.92;99629.48;222230;1299;22511;-82
2023/04/10 04:59:07;;;;;;;93.10;43.00;;;;;;;6.57;88.82;99630.67;221826;1301;22559;-83
2023/04/10 05:04:28;;;;;;;82.10;40.50;;;;;;;6.61;88.41;99635.56;222371;1299;23874;-83
2023/04/10 05:09:41;;;;;;;79.10;40.70;;;;;;;6.62;88.68;99650.18;222117;1289;22591;-81
2023/04/10 05:14:55;;;;;;;80.00;39.00;;;;;;;6.63;88.71;99662.23;222238;1301;22935;-83
2023/04/10 05:20:34;;;;;;;82.40;40.60;;;;;;;6.63;88.88;99660.63;221729;1301;25983;-83
2023/04/10 05:25:51;;;;;;;82.60;40.10;;;;;;;6.67;88.65;99658.86;222172;1301;22554;-84
2023/04/10 05:31:16;;;;;;;88.90;42.40;;;;;;;6.73;88.70;99657.78;222372;1301;25982;-81
2023/04/10 05:36:24;;;;;;;87.70;41.00;;;;;;;6.76;88.92;99655.58;222270;1290;22550;-82
2023/04/10 05:41:32;;;;;;;96.10;42.30;;;;;;;6.78;88.55;99656.23;222266;1280;24251;-81
2023/04/10 05:46:49;;;;;;;81.90;41.20;;;;;;;6.83;88.79;99667.65;222222;1299;22549;-83
2023/04/10 05:52:12;;;;;;;86.40;40.40;;;;;;;6.87;88.61;99667.27;222291;1296;22631;-83
2023/04/10 05:57:17;;;;;;;89.10;41.20;;;;;;;6.90;88.73;99669.27;222279;1301;22570;-83
2023/04/10 06:02:41;;;;;;;91.20;42.90;;;;;;;6.92;88.60;99667.33;222265;1301;22545;-84
2023/04/10 06:07:52;;;;;;;90.90;41.30;;;;;;;6.94;88.32;99666.86;222222;1287;22974;-82
2023/04/10 06:12:56;;;;;;;91.10;41.90;;;;;;;6.97;89.08;99673.75;222417;1301;22555;-83
2023/04/10 06:18:00;;;;;;;90.50;41.60;;;;;;;6.99;88.66;99676.65;222266;1295;22549;-83
2023/04/10 06:23:02;;;;;;;93.40;40.60;;;;;;;7.01;88.63;99677.88;222237;1301;22618;-84
2023/04/10 06:28:05;;;;;;;84.00;39.50;;;;;;;7.02;88.80;99680.01;222135;1286;22568;-83
2023/04/10 06:33:07;;;;;;;96.30;42.30;;;;;;;7.06;88.91;99679.65;222216;1299;22564;-83
2023/04/10 06:38:11;;;;;;;94.50;41.20;;;;;;;7.10;88.84;99685.19;222476;1298;22577;-82
2023/04/10 06:43:13;;;;;;;93.50;42.70;;;;;;;7.11;88.96;99684.48;222274;1301;22550;-84
2023/04/10 06:48:17;;;;;;;87.40;42.10;;;;;;;7.13;88.91;99690.23;222225;1300;22548;-84
2023/04/10 06:53:19;;;;;;;94.30;42.80;;;;;;;7.17;88.81;99693.58;222294;1278;22505;-84
2023/04/10 06:58:23;;;;;;;91.60;43.40;;;;;;;7.23;88.85;99697.23;222296;1279;25379;-83
2023/04/10 07:03:25;;;;;;;90.80;40.70;;;;;;;7.28;88.90;99698.16;222423;1295;22564;-83
2023/04/10 07:08:27;;;;;;;83.50;40.50;;;;;;;7.35;88.91;99697.30;222475;1299;22998;-82
2023/04/10 07:13:29;;;;;;;83.50;40.10;;;;;;;7.45;88.90;99693.41;222189;1301;22572;-84
2023/04/10 07:18:34;;;;;;;82.00;40.60;;;;;;;7.55;88.93;99685.06;222151;1299;22737;-82
2023/04/10 07:23:37;;;;;;;78.50;38.40;;;;;;;7.65;88.39;99687.95;222185;1301;23067;-83
2023/04/10 07:28:39;;;;;;;78.80;39.50;;;;;;;7.74;88.86;99687.42;222143;1283;23795;-83
2023/04/10 07:33:41;;;;;;;77.80;38.90;;;;;;;7.84;88.69;99695.58;222092;1301;22555;-83
2023/04/10 07:38:44;;;;;;;77.00;38.00;;;;;;;7.89;88.51;99694.90;222114;1301;22656;-81
2023/04/10 07:43:47;;;;;;;76.20;37.60;;;;;;;7.92;88.58;99690.21;222221;1299;22574;-84
2023/04/10 07:48:50;;;;;;;72.00;38.90;;;;;;;7.97;88.16;99684.65;222218;1293;25293;-84
2023/04/10 07:53:52;;;;;;;72.20;38.40;;;;;;;8.00;88.13;99674.31;222298;1296;22618;-85
2023/04/10 07:58:54;;;;;;;73.30;37.50;;;;;;;8.05;87.90;99678.36;222270;1300;22673;-83
2023/04/10 08:03:56;;;;;;;70.20;36.40;;;;;;;8.11;87.99;99674.33;222416;1293;22563;-83
2023/04/10 08:09:00;;;;;;;66.70;35.90;;;;;;;8.14;88.18;99672.58;222292;1295;22578;-83
2023/04/10 08:14:04;;;;;;;66.90;35.70;;;;;;;8.19;87.61;99678.59;222452;1295;22574;-85
2023/04/10 08:19:07;;;;;;;69.60;36.80;;;;;;;8.27;87.66;99679.41;222063;1301;22571;-84
2023/04/10 08:24:10;;;;;;;60.50;34.60;;;;;;;8.37;87.62;99679.09;222070;1301;22543;-85
2023/04/10 08:29:12;;;;;;;60.10;33.10;;;;;;;8.54;87.49;99678.73;222388;1300;22565;-84
2023/04/10 08:34:14;;;;;;;56.80;32.40;;;;;;;8.71;87.09;99676.73;221961;1301;22601;-85
2023/04/10 08:39:17;;;;;;;60.40;33.90;;;;;;;8.92;87.16;99674.10;222362;1299;23800;-83
2023/04/10 08:44:19;;;;;;;52.10;32.50;;;;;;;9.10;86.99;99674.56;222235;1299;22684;-83
2023/04/10 08:49:48;;;;;;;51.60;31.80;;;;;;;9.26;86.82;99677.54;222302;1301;22552;-84
2023/04/10 08:54:57;;;;;;;50.90;33.00;;;;;;;9.36;86.31;99682.95;222230;1296;22573;-84
2023/04/10 08:59:59;;;;;;;50.80;32.30;;;;;;;9.39;85.62;99685.45;222401;1291;22575;-84
2023/04/10 09:05:23;;;;;;;49.80;31.80;;;;;;;9.47;86.15;99686.24;222314;1301;22559;-85
2023/04/10 09:10:26;;;;;;;54.40;32.50;;;;;;;9.51;85.46;99687.67;222230;1301;22557;-82
2023/04/10 09:15:28;;;;;;;52.60;32.00;;;;;;;9.55;85.76;99686.11;222092;1301;22573;-85
2023/04/10 09:20:32;;;;;;;50.10;32.30;;;;;;;9.60;85.48;99684.02;222146;1299;25247;-83
2023/04/10 09:25:37;;;;;;;48.90;31.50;;;;;;;9.72;85.42;99686.90;222150;1301;22557;-84
2023/04/10 09:30:41;;;;;;;49.70;30.60;;;;;;;9.84;85.22;99691.42;222147;1287;22556;-84
2023/04/10 09:35:44;;;;;;;47.20;30.50;;;;;;;9.88;84.93;99687.52;222308;1301;22576;-84
2023/04/10 09:40:47;;;;;;;48.70;30.80;;;;;;;10.01;84.71;99678.30;222452;1298;25308;-84
2023/04/10 09:45:51;;;;;;;49.80;30.70;;;;;;;10.27;84.89;99667.73;222137;1299;22586;-84
2023/04/10 09:50:53;;;;;;;46.50;31.00;;;;;;;10.50;84.29;99660.17;222126;1301;22546;-85
2023/04/10 09:55:56;;;;;;;48.70;31.60;;;;;;;10.62;83.74;99658.09;222444;1298;22556;-84
2023/04/10 10:00:59;;;;;;;45.60;30.40;;;;;;;10.74;83.67;99655.27;222090;1286;22629;-83
2023/04/10 10:06:01;;;;;;;50.70;32.30;;;;;;;10.79;83.51;99653.98;222411;1301;22550;-85
2023/04/10 10:11:08;;;;;;;52.70;33.80;;;;;;;10.81;83.47;99647.73;222175;1301;22596;-81
2023/04/10 10:16:13;;;;;;;52.20;32.20;;;;;;;10.81;83.20;99644.92;222304;1299;22575;-85
2023/04/10 10:21:17;;;;;;;51.40;31.80;;;;;;;10.84;82.99;99638.03;222269;1301;226840;-85
2023/04/10 10:26:22;;;;;;;53.00;31.30;;;;;;;10.98;83.08;99628.59;222374;1301;22639;-84
2023/04/10 10:31:31;;;;;;;44.20;29.70;;;;;;;11.21;82.74;99626.00;221970;1301;22565;-85
2023/04/10 10:36:41;;;;;;;46.40;30.30;;;;;;;11.48;82.32;99618.60;222416;1299;24258;-85
2023/04/10 10:42:01;;;;;;;46.30;31.20;;;;;;;11.77;82.27;99619.48;222240;1292;23812;-85
2023/04/10 10:47:16;;;;;;;46.60;30.40;;;;;;;12.04;81.87;99614.94;221987;1301;22544;-86
2023/04/10 10:52:38;;;;;;;46.00;31.00;;;;;;;12.34;81.37;99614.35;222012;1301;22585;-84
2023/04/10 10:57:47;;;;;;;46.90;30.90;;;;;;;12.45;80.76;99621.33;221934;1299;22678;-84
2023/04/10 11:03:08;;;;;;;44.60;30.40;;;;;;;12.44;80.56;99612.52;221929;1301;25270;-84
2023/04/10 11:08:11;;;;;;;43.70;29.90;;;;;;;12.42;80.45;99607.96;222479;1301;22618;-84
2023/04/10 11:13:16;;;;;;;42.80;29.80;;;;;;;12.34;80.00;99605.30;222113;1289;22578;-87
2023/04/10 11:18:19;;;;;;;43.30;29.70;;;;;;;12.31;80.06;99605.51;222458;1301;22551;-85
2023/04/10 11:23:22;;;;;;;42.30;30.20;;;;;;;12.34;79.90;99598.79;222413;1301;22588;-84
2023/04/10 11:28:31;;;;;;;40.00;29.00;;;;;;;12.52;79.95;99593.98;222120;1301;22559;-84
2023/04/10 11:33:35;;;;;;;38.10;28.20;;;;;;;12.78;79.46;99585.27;222223;1301;22549;-87
2023/04/10 11:38:38;;;;;;;38.10;28.70;;;;;;;13.12;79.63;99568.05;222193;1296;25481;-85
2023/04/10 11:43:40;;;;;;;43.70;28.70;;;;;;;13.44;78.87;99558.31;222097;1301;22563;-85
2023/04/10 11:48:42;;;;;;;36.50;27.30;;;;;;;13.49;78.00;99552.25;222133;1301;22552;-84
2023/04/10 11:53:45;;;;;;;36.00;26.30;;;;;;;13.47;77.75;99551.08;221979;1301;23268;-84
2023/04/10 11:58:49;;;;;;;37.80;27.90;;;;;;;13.45;77.13;99546.06;222207;1290;22543;-86
2023/04/10 12:03:52;;;;;;;37.70;26.60;;;;;;;13.55;77.73;99538.94;222257;1296;22542;-86
2023/04/10 12:08:55;;;;;;;32.30;25.90;;;;;;;13.68;77.00;99536.46;222436;1297;24279;-85
2023/04/10 12:13:58;;;;;;;37.00;26.40;;;;;;;13.89;77.00;99526.94;222241;1299;22488;-85
2023/04/10 12:19:01;;;;;;;33.20;25.90;;;;;;;14.30;77.04;99517.50;222420;1299;22926;-86
2023/04/10 12:24:04;;;;;;;32.10;25.50;;;;;;;14.47;76.01;99509.50;222194;1299;22557;-86
2023/04/10 12:29:08;;;;;;;33.30;25.90;;;;;;;14.49;75.63;99507.23;222182;1301;22548;-79
2023/04/10 12:34:17;;;;;;;30.70;24.80;;;;;;;14.76;75.52;99499.48;222138;1301;22550;-84
2023/04/10 12:39:23;;;;;;;31.00;24.70;;;;;;;14.92;74.60;99495.21;222240;1299;22690;-86
2023/04/10 12:44:25;;;;;;;28.00;22.70;;;;;;;15.04;74.39;99489.45;222386;1298;22567;-85
2023/04/10 12:49:27;;;;;;;26.90;22.10;;;;;;;15.02;73.72;99484.44;222421;1301;22560;-85
2023/04/10 12:54:30;;;;;;;27.80;22.70;;;;;;;15.03;73.88;99485.38;222462;1299;22567;-85
2023/04/10 12:59:32;;;;;;;26.70;21.00;;;;;;;14.97;72.67;99473.04;222182;1301;25596;-86
2023/04/10 13:04:35;;;;;;;28.70;22.10;;;;;;;14.86;72.74;99461.20;222168;1286;22561;-86
2023/04/10 13:09:37;;;;;;;25.50;20.20;;;;;;;14.95;72.94;99454.58;222210;1296;25344;-86
2023/04/10 13:14:40;;;;;;;25.00;21.60;;;;;;;15.13;72.88;99447.67;222233;1301;22579;-83
2023/04/10 13:19:42;;;;;;;25.60;20.60;;;;;;;15.33;72.24;99446.70;222232;1301;22580;-84
2023/04/10 13:24:45;;;;;;;27.40;20.40;;;;;;;15.45;71.95;99440.08;222170;1296;23074;-86
2023/04/10 13:29:47;;;;;;;23.00;19.80;;;;;;;15.50;71.48;99435.45;222429;1295;23859;-85
2023/04/10 13:34:49;;;;;;;23.30;20.40;;;;;;;15.50;71.59;99426.06;222159;1299;24288;-85
2023/04/10 13:39:52;;;;;;;27.10;20.90;;;;;;;15.45;71.25;99420.02;222179;1301;22810;-85
2023/04/10 13:44:54;;;;;;;25.10;21.30;;;;;;;15.48;71.51;99412.70;222207;1299;22546;-83
2023/04/10 13:49:56;;;;;;;26.00;20.50;;;;;;;15.41;71.02;99404.63;222165;1301;22562;-83
2023/04/10 13:54:59;;;;;;;25.50;20.80;;;;;;;15.25;70.88;99400.23;222138;1280;24282;-84
2023/04/10 14:00:04;;;;;;;24.30;19.70;;;;;;;15.04;70.79;99395.27;222109;1301;22599;-87
2023/04/10 14:05:13;;;;;;;28.50;21.80;;;;;;;14.83;70.84;99385.73;222126;1296;22484;-85
2023/04/10 14:10:15;;;;;;;24.40;19.70;;;;;;;14.70;70.98;99382.58;222150;1283;22571;-85
2023/04/10 14:15:17;;;;;;;24.20;18.80;;;;;;;14.66;71.09;99371.98;222132;1299;24271;-85
2023/04/10 14:20:20;;;;;;;24.30;19.80;;;;;;;14.62;70.99;99366.14;222187;1299;22630;-87
2023/04/10 14:25:22;;;;;;;24.20;19.20;;;;;;;14.58;70.57;99362.77;222186;1299;23782;-86
2023/04/10 14:30:29;;;;;;;23.50;18.70;;;;;;;14.48;70.22;99357.25;222075;1301;22685;-83
2023/04/10 14:35:31;;;;;;;23.30;19.60;;;;;;;14.38;70.55;99352.16;222125;1301;22604;-85
2023/04/10 14:40:34;;;;;;;22.40;18.50;;;;;;;14.38;70.72;99348.12;222413;1295;22575;-84
2023/04/10 14:45:36;;;;;;;23.30;18.70;;;;;;;14.36;70.49;99334.65;222193;1299;22630;-84
2023/04/10 14:50:38;;;;;;;21.10;17.50;;;;;;;14.35;70.46;99327.85;222227;1299;22548;-86
2023/04/10 14:55:41;;;;;;;24.00;18.60;;;;;;;14.31;70.22;99328.20;222170;1301;22558;-85
2023/04/10 15:00:43;;;;;;;21.20;18.20;;;;;;;14.23;70.06;99318.20;222194;1301;23835;-85
2023/04/10 15:05:47;;;;;;;22.20;18.10;;;;;;;14.16;70.20;99313.70;222117;1301;22576;-83
2023/04/10 15:10:51;;;;;;;23.20;17.60;;;;;;;14.14;70.31;99310.81;221976;1299;22670;-86
2023/04/10 15:15:54;;;;;;;23.30;18.20;;;;;;;14.16;70.65;99306.63;222124;1299;23175;-84
2023/04/10 15:20:56;;;;;;;21.60;18.50;;;;;;;14.15;70.36;99303.30;222141;1299;22564;-86
2023/04/10 15:25:58;;;;;;;22.10;17.10;;;;;;;14.09;70.34;99302.34;222172;1301;23704;-85
2023/04/10 15:31:00;;;;;;;21.20;17.20;;;;;;;14.07;70.47;99298.17;222147;1301;24263;-84
2023/04/10 15:36:04;;;;;;;19.80;16.30;;;;;;;14.03;70.14;99300.23;222137;1299;22596;-85
2023/04/10 15:41:11;;;;;;;18.50;15.20;;;;;;;13.95;70.05;99288.98;222203;1295;22647;-85
2023/04/10 15:46:15;;;;;;;20.30;15.80;;;;;;;13.87;69.98;99284.00;222142;1301;22578;-85
2023/04/10 15:51:18;;;;;;;24.30;16.50;;;;;;;13.77;69.86;99284.56;222176;1300;24249;-84
2023/04/10 15:56:21;;;;;;;19.40;15.70;;;;;;;13.68;69.99;99281.77;222456;1287;22674;-83
2023/04/10 16:01:23;;;;;;;21.70;16.90;;;;;;;13.65;70.41;99278.90;222134;1301;22573;-85
2023/04/10 16:06:26;;;;;;;19.40;16.40;;;;;;;13.62;70.66;99279.42;222398;1298;22634;-84
2023/04/10 16:11:28;;;;;;;21.70;16.10;;;;;;;13.62;70.85;99273.13;222422;1296;22556;-84
2023/04/10 16:16:30;;;;;;;;;;;;;;;13.56;70.96;99266.55;222172;1299;22556;-85
2023/04/10 16:21:32;;;;;;;19.70;15.80;;;;;;;13.47;71.01;99259.06;222173;1299;22577;-84
2023/04/10 16:26:34;;;;;;;19.70;15.90;;;;;;;13.35;70.97;99252.33;222137;1296;22565;-84
2023/04/10 16:31:36;;;;;;;22.00;16.20;;;;;;;13.22;71.28;99249.49;222337;1298;22550;-85
2023/04/10 16:36:38;;;;;;;19.10;15.50;;;;;;;13.19;71.50;99250.07;222149;1301;22531;-85
2023/04/10 16:41:40;;;;;;;20.40;16.90;;;;;;;13.14;71.82;99245.35;222396;1298;22601;-85
2023/04/10 16:46:42;;;;;;;17.80;15.40;;;;;;;13.07;71.57;99250.49;222146;1301;22576;-83
2023/04/10 16:51:44;;;;;;;19.30;14.80;;;;;;;12.97;71.47;99247.80;222211;1299;22559;-84
2023/04/10 16:56:46;;;;;;;18.10;14.50;;;;;;;12.88;71.76;99247.81;222427;1299;22560;-84
2023/04/10 17:01:48;;;;;;;19.60;15.50;;;;;;;12.81;71.78;99252.23;222131;1301;22568;-85
2023/04/10 17:06:50;;;;;;;19.10;15.40;;;;;;;12.75;71.87;99245.14;222127;1298;22569;-85
2023/04/10 17:11:52;;;;;;;18.10;14.30;;;;;;;12.68;71.74;99242.45;222413;1299;26606;-83
2023/04/10 17:16:55;;;;;;;24.60;19.60;;;;;;;12.60;72.06;99249.85;222096;1300;22589;-85
2023/04/10 17:21:57;;;;;;;20.40;16.20;;;;;;;12.53;72.43;99250.34;222379;1301;22590;-84
2023/04/10 17:27:00;;;;;;;20.80;17.10;;;;;;;12.43;72.73;99259.54;222378;1282;23974;-84
2023/04/10 17:32:04;;;;;;;22.50;16.70;;;;;;;12.35;73.13;99265.35;222374;1299;23808;-84
2023/04/10 17:37:06;;;;;;;20.00;16.90;;;;;;;12.26;73.45;99274.80;222135;1301;22569;-83
2023/04/10 17:42:08;;;;;;;24.30;19.40;;;;;;;12.20;73.78;99284.59;222414;1299;22550;-84
2023/04/10 17:47:10;;;;;;;24.70;18.80;;;;;;;12.15;73.92;99286.13;222419;1290;22592;-84
2023/04/10 17:52:12;;;;;;;28.60;21.30;;;;;;;12.08;74.10;99280.83;222190;1299;22556;-83
2023/04/10 17:57:14;;;;;;;28.10;21.30;;;;;;;11.96;74.44;99281.65;222075;1299;22542;-84
2023/04/10 18:02:17;;;;;;;25.50;18.90;;;;;;;11.78;75.27;99274.40;222037;1300;22575;-82
2023/04/10 18:07:19;;;;;;;25.60;19.00;;;;;;;11.49;75.72;99245.52;222056;1299;23022;-82
2023/04/10 18:12:21;;;;;;;24.50;19.50;;;;;;;11.11;76.42;99219.70;222414;1293;22574;-84
2023/04/10 18:17:23;;;;;;;22.10;17.70;;;;;;;10.83;77.36;99219.30;222150;1301;22694;-83
2023/04/10 18:22:27;;;;;;;19.30;14.30;;;;;;;10.59;77.76;99227.26;222150;1295;22619;-84
2023/04/10 18:27:30;;;;;;;14.50;11.00;;;;;;;10.35;78.08;99241.16;222376;1299;22577;-83
2023/04/10 18:32:32;;;;;;;16.70;13.10;;;;;;;10.11;78.11;99245.17;222136;1299;22558;-84
2023/04/10 18:37:35;;;;;;;15.40;11.50;;;;;;;9.91;78.27;99243.26;222178;1296;22582;-84
2023/04/10 18:42:37;;;;;;;19.30;13.80;;;;;;;9.71;78.58;99237.45;222414;1296;22569;-83
2023/04/10 18:47:39;;;;;;;18.90;13.80;;;;;;;9.50;79.14;99232.14;222117;1299;22556;-84
2023/04/10 18:52:41;;;;;;;18.50;13.60;;;;;;;9.33;79.32;99227.11;222414;1299;22549;-84
2023/04/10 18:57:43;;;;;;;17.10;13.50;;;;;;;9.18;79.95;99223.83;222365;1299;22568;-84
2023/04/10 19:02:45;;;;;;;17.90;13.90;;;;;;;9.02;80.31;99223.05;222339;1299;22564;-84
2023/04/10 19:07:49;;;;;;;20.70;14.20;;;;;;;8.87;80.39;99225.29;222361;1301;22571;-83
2023/04/10 19:13:04;;;;;;;21.70;15.60;;;;;;;8.71;80.73;99224.20;222424;1299;22567;-84
2023/04/10 19:18:08;;;;;;;25.10;15.80;;;;;;;8.57;80.99;99217.98;222093;1290;22539;-81
2023/04/10 19:23:10;;;;;;;22.70;15.80;;;;;;;8.44;81.27;99210.74;222319;1298;22591;-84
2023/04/10 19:28:12;;;;;;;21.20;16.10;;;;;;;8.31;81.53;99207.78;222392;1299;23100;-83
2023/04/10 19:33:14;;;;;;;25.50;17.20;;;;;;;8.19;81.54;99211.30;222142;1301;22551;-84
2023/04/10 19:38:17;;;;;;;19.10;15.20;;;;;;;8.08;81.90;99211.80;222084;1300;22618;-83
2023/04/10 19:43:19;;;;;;;26.70;19.20;;;;;;;7.96;82.13;99206.98;222422;1298;24223;-84
2023/04/10 19:48:21;;;;;;;33.00;23.40;;;;;;;7.88;82.82;99205.98;222088;1301;23801;-84
2023/04/10 19:53:23;;;;;;;48.90;32.60;;;;;;;7.86;82.95;99198.17;222385;1301;22566;-83
2023/04/10 19:58:25;;;;;;;53.00;35.90;;;;;;;7.87;82.90;99190.30;222133;1301;22589;-84
2023/04/10 20:03:41;;;;;;;83.40;56.20;;;;;;;7.91;83.59;99188.38;222141;1299;22573;-85
2023/04/10 20:08:44;;;;;;;61.30;40.80;;;;;;;7.95;83.61;99185.83;222453;1301;22574;-85
2023/04/10 20:13:46;;;;;;;56.10;38.30;;;;;;;8.01;83.92;99180.08;222426;1296;22553;-82
2023/04/10 20:18:48;;;;;;;54.40;37.20;;;;;;;8.08;84.13;99178.95;222319;1300;22567;-82
2023/04/10 20:23:49;;;;;;;52.10;35.30;;;;;;;8.17;84.05;99182.44;222478;1293;22564;-85
2023/04/10 20:28:52;;;;;;;49.30;33.90;;;;;;;8.26;84.28;99182.89;222439;1300;22559;-84
2023/04/10 20:33:55;;;;;;;112.90;66.80;;;;;;;8.32;84.27;99187.48;222442;1301;22595;-85
2023/04/10 20:38:57;;;;;;;68.30;43.80;;;;;;;8.28;84.10;99195.52;222400;1299;22569;-84
2023/04/10 20:43:59;;;;;;;64.70;42.30;;;;;;;8.14;83.80;99188.69;222171;1297;25356;-86
2023/04/10 20:49:02;;;;;;;70.20;47.30;;;;;;;8.02;83.57;99185.28;222383;1300;22648;-84
2023/04/10 20:54:07;;;;;;;73.60;47.90;;;;;;;7.89;83.85;99180.13;222475;1298;22549;-84
2023/04/10 20:59:10;;;;;;;77.50;50.30;;;;;;;7.76;84.63;99165.88;222104;1301;22554;-84
2023/04/10 21:04:12;;;;;;;72.70;48.90;;;;;;;7.65;84.24;99161.06;222178;1289;22654;-86
2023/04/10 21:09:15;;;;;;;77.40;49.90;;;;;;;7.57;84.44;99156.14;222157;1301;24359;-84
2023/04/10 21:14:23;;;;;;;67.10;44.40;;;;;;;7.48;84.76;99153.64;222168;1301;22553;-83
2023/04/10 21:19:25;;;;;;;57.50;37.50;;;;;;;7.36;85.10;99146.77;222417;1299;25431;-84
2023/04/10 21:24:27;;;;;;;55.70;36.00;;;;;;;7.28;85.15;99144.42;222136;1301;22630;-85
2023/04/10 21:29:30;;;;;;;60.90;39.70;;;;;;;7.24;85.50;99140.64;222106;1283;26195;-84
2023/04/10 21:34:32;;;;;;;61.10;40.60;;;;;;;7.21;85.77;99134.68;222259;1301;22559;-84
2023/04/10 21:39:39;;;;;;;61.00;40.90;;;;;;;7.15;85.63;99129.02;222123;1300;22654;-82
2023/04/10 21:44:42;;;;;;;65.60;42.20;;;;;;;7.06;85.91;99126.63;222430;1299;22573;-83
2023/04/10 21:49:50;;;;;;;63.80;39.50;;;;;;;6.96;86.02;99120.46;222425;1301;22581;-82
2023/04/10 21:54:54;;;;;;;87.80;54.20;;;;;;;6.86;85.85;99107.67;222101;1301;22563;-84
2023/04/10 21:59:56;;;;;;;74.60;44.60;;;;;;;6.77;86.09;99104.52;222118;1299;22540;-83
2023/04/10 22:04:58;;;;;;;73.80;47.50;;;;;;;6.66;85.89;99110.35;222433;1298;22566;-84
2023/04/10 22:10:00;;;;;;;84.50;54.20;;;;;;;6.53;85.86;99098.91;222163;1301;23206;-85
2023/04/10 22:15:03;;;;;;;85.20;53.20;;;;;;;6.43;86.04;99089.46;222355;1298;22553;-82
2023/04/10 22:20:05;;;;;;;91.00;53.50;;;;;;;6.35;86.43;99083.94;222172;1289;22550;-84
2023/04/10 22:25:07;;;;;;;91.80;54.70;;;;;;;6.26;86.57;99073.96;221983;1301;198114;-83
2023/04/10 22:30:10;;;;;;;93.20;56.40;;;;;;;6.19;86.70;99063.03;222113;1301;22563;-83
2023/04/10 22:35:12;;;;;;;101.30;59.80;;;;;;;6.12;86.55;99057.36;222159;1301;22562;-84
2023/04/10 22:40:14;;;;;;;109.00;59.50;;;;;;;6.06;86.76;99046.87;222128;1301;22556;-86
2023/04/10 22:45:16;;;;;;;101.60;60.10;;;;;;;6.00;86.63;99039.54;221894;1290;22570;-84
2023/04/10 22:50:20;;;;;;;112.70;64.00;;;;;;;5.93;86.96;99032.35;222412;1301;22614;-84
2023/04/10 22:55:22;;;;;;;117.10;63.70;;;;;;;5.88;86.87;99028.98;222175;1301;22579;-84
2023/04/10 23:00:24;;;;;;;109.20;60.00;;;;;;;5.82;87.04;99016.48;222380;1301;22600;-84
2023/04/10 23:05:27;;;;;;;110.40;58.30;;;;;;;5.77;87.24;99009.79;222134;1301;22545;-84
2023/04/10 23:10:32;;;;;;;106.00;56.60;;;;;;;5.76;87.52;98996.83;222115;1301;22620;-85
2023/04/10 23:15:37;;;;;;;115.90;61.10;;;;;;;5.73;87.51;98993.78;222164;1301;22567;-86